sensor_id;sensor_type;location;lat;lon;timestamp;P1;durP1;ratioP1;P2;durP2;ratioP2
20729;SDS011;10526;50.850;12.928;2023-08-07T00:00:02;5.85;;;2.83;;
20729;SDS011;10526;50.850;12.928;2023-08-07T00:04:26;5.35;;;2.88;;
20729;SDS011;10526;50.850;12.928;2023-08-07T00:08:48;5.90;;;2.40;;
20729;SDS011;10526;50.850;12.928;2023-08-07T00:13:10;5.68;;;2.65;;
20729;SDS011;10526;50.850;12.928;2023-08-07T00:17:32;3.28;;;2.08;;
20729;SDS011;10526;50.850;12.928;2023-08-07T00:21:54;3.97;;;2.22;;
20729;SDS011;10526;50.850;12.928;2023-08-07T00:26:16;3.65;;;2.00;;
20729;SDS011;10526;50.850;12.928;2023-08-07T00:30:38;2.35;;;1.80;;
20729;SDS011;10526;50.850;12.928;2023-08-07T00:35:00;8.35;;;2.10;;
20729;SDS011;10526;50.850;12.928;2023-08-07T00:39:22;3.28;;;2.03;;
20729;SDS011;10526;50.850;12.928;2023-08-07T00:43:45;3.78;;;2.30;;
20729;SDS011;10526;50.850;12.928;2023-08-07T00:48:07;3.33;;;2.10;;
20729;SDS011;10526;50.850;12.928;2023-08-07T00:52:29;3.58;;;2.15;;
20729;SDS011;10526;50.850;12.928;2023-08-07T00:56:53;3.88;;;2.20;;
20729;SDS011;10526;50.850;12.928;2023-08-07T01:01:15;5.30;;;2.17;;
20729;SDS011;10526;50.850;12.928;2023-08-07T01:05:39;6.85;;;2.90;;
20729;SDS011;10526;50.850;12.928;2023-08-07T01:10:01;5.22;;;2.67;;
20729;SDS011;10526;50.850;12.928;2023-08-07T01:14:37;6.07;;;2.70;;
20729;SDS011;10526;50.850;12.928;2023-08-07T01:19:12;4.70;;;2.47;;
20729;SDS011;10526;50.850;12.928;2023-08-07T01:23:46;3.50;;;2.40;;
20729;SDS011;10526;50.850;12.928;2023-08-07T01:28:16;6.32;;;2.90;;
20729;SDS011;10526;50.850;12.928;2023-08-07T01:37:46;4.45;;;2.40;;
20729;SDS011;10526;50.850;12.928;2023-08-07T01:42:09;4.45;;;2.60;;
20729;SDS011;10526;50.850;12.928;2023-08-07T01:46:31;5.95;;;2.90;;
20729;SDS011;10526;50.850;12.928;2023-08-07T01:50:53;3.58;;;2.30;;
20729;SDS011;10526;50.850;12.928;2023-08-07T01:55:18;4.95;;;2.65;;
20729;SDS011;10526;50.850;12.928;2023-08-07T01:59:45;6.30;;;2.85;;
20729;SDS011;10526;50.850;12.928;2023-08-07T02:04:07;5.47;;;2.75;;
20729;SDS011;10526;50.850;12.928;2023-08-07T02:08:29;6.25;;;3.30;;
20729;SDS011;10526;50.850;12.928;2023-08-07T02:12:51;7.47;;;3.60;;
20729;SDS011;10526;50.850;12.928;2023-08-07T02:17:13;8.55;;;3.55;;
20729;SDS011;10526;50.850;12.928;2023-08-07T02:21:35;6.72;;;3.58;;
20729;SDS011;10526;50.850;12.928;2023-08-07T02:25:57;6.32;;;3.58;;
20729;SDS011;10526;50.850;12.928;2023-08-07T02:30:19;7.25;;;3.67;;
20729;SDS011;10526;50.850;12.928;2023-08-07T02:34:44;7.35;;;4.00;;
20729;SDS011;10526;50.850;12.928;2023-08-07T02:39:06;7.13;;;3.50;;
20729;SDS011;10526;50.850;12.928;2023-08-07T02:43:28;8.18;;;3.78;;
20729;SDS011;10526;50.850;12.928;2023-08-07T02:47:51;8.10;;;4.10;;
20729;SDS011;10526;50.850;12.928;2023-08-07T02:52:13;8.68;;;4.40;;
20729;SDS011;10526;50.850;12.928;2023-08-07T02:56:35;7.97;;;4.20;;
20729;SDS011;10526;50.850;12.928;2023-08-07T03:01:02;9.68;;;4.00;;
20729;SDS011;10526;50.850;12.928;2023-08-07T03:05:26;9.70;;;4.57;;
20729;SDS011;10526;50.850;12.928;2023-08-07T03:09:49;10.73;;;4.63;;
20729;SDS011;10526;50.850;12.928;2023-08-07T03:14:11;7.55;;;4.07;;
20729;SDS011;10526;50.850;12.928;2023-08-07T03:18:33;8.85;;;4.40;;
20729;SDS011;10526;50.850;12.928;2023-08-07T03:22:56;21.10;;;5.05;;
20729;SDS011;10526;50.850;12.928;2023-08-07T03:27:18;10.20;;;3.95;;
20729;SDS011;10526;50.850;12.928;2023-08-07T03:31:40;10.48;;;4.80;;
20729;SDS011;10526;50.850;12.928;2023-08-07T03:36:02;9.50;;;4.65;;
20729;SDS011;10526;50.850;12.928;2023-08-07T03:40:24;9.00;;;4.68;;
20729;SDS011;10526;50.850;12.928;2023-08-07T03:44:46;9.27;;;4.18;;
20729;SDS011;10526;50.850;12.928;2023-08-07T03:49:08;8.57;;;4.43;;
20729;SDS011;10526;50.850;12.928;2023-08-07T03:53:30;9.75;;;4.72;;
20729;SDS011;10526;50.850;12.928;2023-08-07T03:57:52;12.23;;;5.45;;
20729;SDS011;10526;50.850;12.928;2023-08-07T04:02:15;10.82;;;5.00;;
20729;SDS011;10526;50.850;12.928;2023-08-07T04:06:39;12.07;;;5.05;;
20729;SDS011;10526;50.850;12.928;2023-08-07T04:11:01;12.00;;;5.03;;
20729;SDS011;10526;50.850;12.928;2023-08-07T04:15:28;9.73;;;4.72;;
20729;SDS011;10526;50.850;12.928;2023-08-07T04:19:50;8.35;;;4.22;;
20729;SDS011;10526;50.850;12.928;2023-08-07T04:24:12;12.43;;;5.32;;
20729;SDS011;10526;50.850;12.928;2023-08-07T04:28:34;11.90;;;4.75;;
20729;SDS011;10526;50.850;12.928;2023-08-07T04:32:56;9.13;;;5.10;;
20729;SDS011;10526;50.850;12.928;2023-08-07T04:37:18;10.75;;;4.68;;
20729;SDS011;10526;50.850;12.928;2023-08-07T04:41:40;8.52;;;4.53;;
20729;SDS011;10526;50.850;12.928;2023-08-07T04:46:02;8.50;;;4.22;;
20729;SDS011;10526;50.850;12.928;2023-08-07T04:50:25;8.77;;;3.88;;
20729;SDS011;10526;50.850;12.928;2023-08-07T04:54:47;9.77;;;4.13;;
20729;SDS011;10526;50.850;12.928;2023-08-07T04:59:09;10.57;;;4.05;;
20729;SDS011;10526;50.850;12.928;2023-08-07T05:03:32;8.57;;;3.85;;
20729;SDS011;10526;50.850;12.928;2023-08-07T05:07:54;9.65;;;4.15;;
20729;SDS011;10526;50.850;12.928;2023-08-07T05:12:16;10.18;;;3.72;;
20729;SDS011;10526;50.850;12.928;2023-08-07T05:16:38;6.40;;;3.25;;
20729;SDS011;10526;50.850;12.928;2023-08-07T05:21:00;7.95;;;3.25;;
20729;SDS011;10526;50.850;12.928;2023-08-07T05:25:23;7.10;;;2.72;;
20729;SDS011;10526;50.850;12.928;2023-08-07T05:29:45;6.15;;;2.70;;
20729;SDS011;10526;50.850;12.928;2023-08-07T05:34:07;5.47;;;2.40;;
20729;SDS011;10526;50.850;12.928;2023-08-07T05:38:29;7.78;;;2.53;;
20729;SDS011;10526;50.850;12.928;2023-08-07T05:42:51;5.65;;;2.30;;
20729;SDS011;10526;50.850;12.928;2023-08-07T05:47:13;6.47;;;2.40;;
20729;SDS011;10526;50.850;12.928;2023-08-07T05:51:34;6.38;;;2.47;;
20729;SDS011;10526;50.850;12.928;2023-08-07T05:55:56;5.35;;;2.40;;
20729;SDS011;10526;50.850;12.928;2023-08-07T06:00:18;5.03;;;2.08;;
20729;SDS011;10526;50.850;12.928;2023-08-07T06:04:41;2.92;;;1.80;;
20729;SDS011;10526;50.850;12.928;2023-08-07T06:09:03;3.13;;;1.60;;
20729;SDS011;10526;50.850;12.928;2023-08-07T06:13:25;3.88;;;1.73;;
20729;SDS011;10526;50.850;12.928;2023-08-07T06:17:56;6.22;;;1.83;;
20729;SDS011;10526;50.850;12.928;2023-08-07T06:22:18;1.90;;;1.10;;
20729;SDS011;10526;50.850;12.928;2023-08-07T06:26:40;4.97;;;1.88;;
20729;SDS011;10526;50.850;12.928;2023-08-07T06:31:03;3.88;;;1.40;;
20729;SDS011;10526;50.850;12.928;2023-08-07T06:35:26;2.42;;;1.30;;
20729;SDS011;10526;50.850;12.928;2023-08-07T06:39:48;2.42;;;1.33;;
20729;SDS011;10526;50.850;12.928;2023-08-07T06:44:10;3.50;;;1.50;;
20729;SDS011;10526;50.850;12.928;2023-08-07T06:48:32;6.05;;;1.50;;
20729;SDS011;10526;50.850;12.928;2023-08-07T06:52:54;3.33;;;1.10;;
20729;SDS011;10526;50.850;12.928;2023-08-07T06:57:16;1.05;;;0.73;;
20729;SDS011;10526;50.850;12.928;2023-08-07T07:01:38;1.30;;;1.10;;
20729;SDS011;10526;50.850;12.928;2023-08-07T07:06:00;1.70;;;1.02;;
20729;SDS011;10526;50.850;12.928;2023-08-07T07:10:22;4.15;;;1.30;;
20729;SDS011;10526;50.850;12.928;2023-08-07T07:14:44;4.28;;;2.08;;
20729;SDS011;10526;50.850;12.928;2023-08-07T07:19:06;3.67;;;1.25;;
20729;SDS011;10526;50.850;12.928;2023-08-07T07:23:30;2.58;;;1.25;;
20729;SDS011;10526;50.850;12.928;2023-08-07T07:27:52;1.90;;;0.98;;
20729;SDS011;10526;50.850;12.928;2023-08-07T07:32:14;3.35;;;1.45;;
20729;SDS011;10526;50.850;12.928;2023-08-07T07:36:36;4.07;;;1.33;;
20729;SDS011;10526;50.850;12.928;2023-08-07T07:40:58;3.75;;;1.63;;
20729;SDS011;10526;50.850;12.928;2023-08-07T07:45:21;2.30;;;1.30;;
20729;SDS011;10526;50.850;12.928;2023-08-07T07:49:45;1.58;;;1.30;;
20729;SDS011;10526;50.850;12.928;2023-08-07T07:54:11;2.15;;;1.20;;
20729;SDS011;10526;50.850;12.928;2023-08-07T07:58:35;2.97;;;1.30;;
20729;SDS011;10526;50.850;12.928;2023-08-07T08:02:57;5.10;;;1.42;;
20729;SDS011;10526;50.850;12.928;2023-08-07T08:07:20;2.38;;;1.25;;
20729;SDS011;10526;50.850;12.928;2023-08-07T08:11:42;4.15;;;1.67;;
20729;SDS011;10526;50.850;12.928;2023-08-07T08:16:05;2.78;;;1.50;;
20729;SDS011;10526;50.850;12.928;2023-08-07T08:20:27;1.98;;;1.10;;
20729;SDS011;10526;50.850;12.928;2023-08-07T08:24:51;3.08;;;1.60;;
20729;SDS011;10526;50.850;12.928;2023-08-07T08:29:16;2.90;;;1.00;;
20729;SDS011;10526;50.850;12.928;2023-08-07T08:33:38;4.15;;;1.20;;
20729;SDS011;10526;50.850;12.928;2023-08-07T08:38:01;3.03;;;1.20;;
20729;SDS011;10526;50.850;12.928;2023-08-07T08:42:24;2.30;;;1.05;;
20729;SDS011;10526;50.850;12.928;2023-08-07T08:46:47;3.95;;;1.40;;
20729;SDS011;10526;50.850;12.928;2023-08-07T08:51:17;3.20;;;1.30;;
20729;SDS011;10526;50.850;12.928;2023-08-07T08:55:42;1.50;;;1.30;;
20729;SDS011;10526;50.850;12.928;2023-08-07T09:00:08;2.30;;;1.20;;
20729;SDS011;10526;50.850;12.928;2023-08-07T09:04:39;4.82;;;1.63;;
20729;SDS011;10526;50.850;12.928;2023-08-07T09:09:03;2.10;;;1.50;;
20729;SDS011;10526;50.850;12.928;2023-08-07T09:13:25;3.55;;;1.63;;
20729;SDS011;10526;50.850;12.928;2023-08-07T09:17:49;5.90;;;1.50;;
20729;SDS011;10526;50.850;12.928;2023-08-07T09:22:13;4.65;;;1.92;;
20729;SDS011;10526;50.850;12.928;2023-08-07T09:26:36;3.13;;;1.10;;
20729;SDS011;10526;50.850;12.928;2023-08-07T09:30:58;3.95;;;1.20;;
20729;SDS011;10526;50.850;12.928;2023-08-07T09:35:23;2.38;;;1.27;;
20729;SDS011;10526;50.850;12.928;2023-08-07T09:39:45;2.85;;;1.08;;
20729;SDS011;10526;50.850;12.928;2023-08-07T09:44:09;1.95;;;1.02;;
20729;SDS011;10526;50.850;12.928;2023-08-07T09:48:42;1.20;;;0.93;;
20729;SDS011;10526;50.850;12.928;2023-08-07T09:53:04;1.52;;;1.02;;
20729;SDS011;10526;50.850;12.928;2023-08-07T09:57:26;3.25;;;1.30;;
20729;SDS011;10526;50.850;12.928;2023-08-07T10:01:48;2.72;;;1.20;;
20729;SDS011;10526;50.850;12.928;2023-08-07T10:06:11;2.42;;;0.93;;
20729;SDS011;10526;50.850;12.928;2023-08-07T10:10:34;4.03;;;1.23;;
20729;SDS011;10526;50.850;12.928;2023-08-07T10:14:56;2.08;;;1.20;;
20729;SDS011;10526;50.850;12.928;2023-08-07T10:19:22;1.42;;;0.85;;
20729;SDS011;10526;50.850;12.928;2023-08-07T10:23:44;0.98;;;0.80;;
20729;SDS011;10526;50.850;12.928;2023-08-07T10:28:10;2.03;;;1.10;;
20729;SDS011;10526;50.850;12.928;2023-08-07T10:32:36;0.98;;;0.80;;
20729;SDS011;10526;50.850;12.928;2023-08-07T10:36:59;2.60;;;1.00;;
20729;SDS011;10526;50.850;12.928;2023-08-07T10:41:21;11.40;;;1.40;;
20729;SDS011;10526;50.850;12.928;2023-08-07T10:45:43;0.85;;;0.82;;
20729;SDS011;10526;50.850;12.928;2023-08-07T10:50:06;1.30;;;1.00;;
20729;SDS011;10526;50.850;12.928;2023-08-07T10:54:30;2.05;;;0.98;;
20729;SDS011;10526;50.850;12.928;2023-08-07T10:59:10;4.68;;;1.23;;
20729;SDS011;10526;50.850;12.928;2023-08-07T11:03:35;2.28;;;1.10;;
20729;SDS011;10526;50.850;12.928;2023-08-07T11:07:57;4.63;;;1.10;;
20729;SDS011;10526;50.850;12.928;2023-08-07T11:12:19;2.95;;;1.55;;
20729;SDS011;10526;50.850;12.928;2023-08-07T11:16:42;1.35;;;0.95;;
20729;SDS011;10526;50.850;12.928;2023-08-07T11:21:06;2.90;;;1.13;;
20729;SDS011;10526;50.850;12.928;2023-08-07T11:25:32;3.08;;;1.00;;
20729;SDS011;10526;50.850;12.928;2023-08-07T11:29:54;1.25;;;0.80;;
20729;SDS011;10526;50.850;12.928;2023-08-07T11:34:19;1.05;;;0.50;;
20729;SDS011;10526;50.850;12.928;2023-08-07T11:38:42;0.75;;;0.60;;
20729;SDS011;10526;50.850;12.928;2023-08-07T11:43:05;0.95;;;0.75;;
20729;SDS011;10526;50.850;12.928;2023-08-07T11:47:27;2.10;;;0.80;;
20729;SDS011;10526;50.850;12.928;2023-08-07T11:51:49;1.42;;;0.68;;
20729;SDS011;10526;50.850;12.928;2023-08-07T11:56:12;1.27;;;0.43;;
20729;SDS011;10526;50.850;12.928;2023-08-07T12:00:41;0.22;;;0.22;;
20729;SDS011;10526;50.850;12.928;2023-08-07T12:05:07;0.82;;;0.70;;
20729;SDS011;10526;50.850;12.928;2023-08-07T12:09:31;3.22;;;1.13;;
20729;SDS011;10526;50.850;12.928;2023-08-07T12:13:54;3.10;;;1.42;;
20729;SDS011;10526;50.850;12.928;2023-08-07T12:18:17;3.80;;;1.35;;
20729;SDS011;10526;50.850;12.928;2023-08-07T12:22:41;3.15;;;1.30;;
20729;SDS011;10526;50.850;12.928;2023-08-07T12:27:05;0.85;;;0.50;;
20729;SDS011;10526;50.850;12.928;2023-08-07T12:31:28;1.80;;;0.55;;
20729;SDS011;10526;50.850;12.928;2023-08-07T12:35:50;0.70;;;0.60;;
20729;SDS011;10526;50.850;12.928;2023-08-07T12:40:14;1.88;;;0.57;;
20729;SDS011;10526;50.850;12.928;2023-08-07T12:44:43;0.65;;;0.50;;
20729;SDS011;10526;50.850;12.928;2023-08-07T12:49:08;0.95;;;0.40;;
20729;SDS011;10526;50.850;12.928;2023-08-07T12:53:31;1.15;;;0.60;;
20729;SDS011;10526;50.850;12.928;2023-08-07T12:57:52;2.03;;;0.57;;
20729;SDS011;10526;50.850;12.928;2023-08-07T13:02:15;1.42;;;0.70;;
20729;SDS011;10526;50.850;12.928;2023-08-07T13:06:37;1.85;;;0.73;;
20729;SDS011;10526;50.850;12.928;2023-08-07T13:10:59;4.15;;;0.93;;
20729;SDS011;10526;50.850;12.928;2023-08-07T13:15:21;1.90;;;0.93;;
20729;SDS011;10526;50.850;12.928;2023-08-07T13:19:43;1.10;;;0.70;;
20729;SDS011;10526;50.850;12.928;2023-08-07T13:24:05;1.48;;;0.40;;
20729;SDS011;10526;50.850;12.928;2023-08-07T13:28:27;1.75;;;0.70;;
20729;SDS011;10526;50.850;12.928;2023-08-07T13:32:49;1.20;;;0.50;;
20729;SDS011;10526;50.850;12.928;2023-08-07T13:37:11;0.60;;;0.60;;
20729;SDS011;10526;50.850;12.928;2023-08-07T13:41:33;1.40;;;0.52;;
20729;SDS011;10526;50.850;12.928;2023-08-07T13:45:55;1.30;;;0.70;;
20729;SDS011;10526;50.850;12.928;2023-08-07T13:50:17;5.03;;;0.60;;
20729;SDS011;10526;50.850;12.928;2023-08-07T13:54:39;1.85;;;0.80;;
20729;SDS011;10526;50.850;12.928;2023-08-07T13:59:01;1.13;;;0.80;;
20729;SDS011;10526;50.850;12.928;2023-08-07T14:03:23;1.55;;;0.68;;
20729;SDS011;10526;50.850;12.928;2023-08-07T14:07:46;2.75;;;0.75;;
20729;SDS011;10526;50.850;12.928;2023-08-07T14:12:08;10.05;;;1.30;;
20729;SDS011;10526;50.850;12.928;2023-08-07T14:16:30;2.72;;;0.90;;
20729;SDS011;10526;50.850;12.928;2023-08-07T14:20:53;4.00;;;0.98;;
20729;SDS011;10526;50.850;12.928;2023-08-07T14:25:23;1.17;;;0.70;;
20729;SDS011;10526;50.850;12.928;2023-08-07T14:29:45;1.67;;;0.80;;
20729;SDS011;10526;50.850;12.928;2023-08-07T14:34:07;3.03;;;1.40;;
20729;SDS011;10526;50.850;12.928;2023-08-07T14:38:29;3.35;;;1.20;;
20729;SDS011;10526;50.850;12.928;2023-08-07T14:42:51;2.15;;;1.10;;
20729;SDS011;10526;50.850;12.928;2023-08-07T14:47:13;5.68;;;1.20;;
20729;SDS011;10526;50.850;12.928;2023-08-07T14:51:35;2.38;;;0.95;;
20729;SDS011;10526;50.850;12.928;2023-08-07T14:55:57;3.30;;;1.60;;
20729;SDS011;10526;50.850;12.928;2023-08-07T15:00:19;4.15;;;1.40;;
20729;SDS011;10526;50.850;12.928;2023-08-07T15:04:41;4.32;;;1.80;;
20729;SDS011;10526;50.850;12.928;2023-08-07T15:09:03;2.17;;;1.23;;
20729;SDS011;10526;50.850;12.928;2023-08-07T15:13:25;1.85;;;1.00;;
20729;SDS011;10526;50.850;12.928;2023-08-07T15:17:48;2.70;;;1.20;;
20729;SDS011;10526;50.850;12.928;2023-08-07T15:22:10;2.65;;;1.23;;
20729;SDS011;10526;50.850;12.928;2023-08-07T15:26:32;2.97;;;1.13;;
20729;SDS011;10526;50.850;12.928;2023-08-07T15:30:54;2.78;;;1.35;;
20729;SDS011;10526;50.850;12.928;2023-08-07T15:35:16;2.10;;;1.15;;
20729;SDS011;10526;50.850;12.928;2023-08-07T15:39:38;9.68;;;3.72;;
20729;SDS011;10526;50.850;12.928;2023-08-07T15:44:00;3.58;;;1.40;;
20729;SDS011;10526;50.850;12.928;2023-08-07T15:48:22;1.85;;;1.35;;
20729;SDS011;10526;50.850;12.928;2023-08-07T15:52:44;3.95;;;1.30;;
20729;SDS011;10526;50.850;12.928;2023-08-07T15:57:06;5.45;;;1.58;;
20729;SDS011;10526;50.850;12.928;2023-08-07T16:01:28;4.93;;;1.65;;
20729;SDS011;10526;50.850;12.928;2023-08-07T16:05:50;6.68;;;1.48;;
20729;SDS011;10526;50.850;12.928;2023-08-07T16:10:13;4.40;;;1.67;;
20729;SDS011;10526;50.850;12.928;2023-08-07T16:14:35;4.13;;;1.67;;
20729;SDS011;10526;50.850;12.928;2023-08-07T16:18:59;6.47;;;1.77;;
20729;SDS011;10526;50.850;12.928;2023-08-07T16:23:21;4.20;;;1.77;;
20729;SDS011;10526;50.850;12.928;2023-08-07T16:27:43;5.75;;;1.90;;
20729;SDS011;10526;50.850;12.928;2023-08-07T16:32:06;6.60;;;2.17;;
20729;SDS011;10526;50.850;12.928;2023-08-07T16:36:29;6.20;;;2.10;;
20729;SDS011;10526;50.850;12.928;2023-08-07T16:40:52;5.82;;;2.20;;
20729;SDS011;10526;50.850;12.928;2023-08-07T16:45:14;3.83;;;1.70;;
20729;SDS011;10526;50.850;12.928;2023-08-07T16:49:36;4.45;;;1.75;;
20729;SDS011;10526;50.850;12.928;2023-08-07T16:53:58;8.20;;;2.20;;
20729;SDS011;10526;50.850;12.928;2023-08-07T16:58:21;6.60;;;2.40;;
20729;SDS011;10526;50.850;12.928;2023-08-07T17:02:44;8.77;;;2.60;;
20729;SDS011;10526;50.850;12.928;2023-08-07T17:07:09;5.72;;;2.28;;
20729;SDS011;10526;50.850;12.928;2023-08-07T17:11:31;8.00;;;2.40;;
20729;SDS011;10526;50.850;12.928;2023-08-07T17:15:55;11.23;;;2.90;;
20729;SDS011;10526;50.850;12.928;2023-08-07T17:20:18;9.65;;;2.53;;
20729;SDS011;10526;50.850;12.928;2023-08-07T17:24:40;9.00;;;2.63;;
20729;SDS011;10526;50.850;12.928;2023-08-07T17:29:02;8.60;;;2.92;;
20729;SDS011;10526;50.850;12.928;2023-08-07T17:33:25;8.85;;;3.50;;
20729;SDS011;10526;50.850;12.928;2023-08-07T17:37:47;13.95;;;3.42;;
20729;SDS011;10526;50.850;12.928;2023-08-07T17:42:10;10.07;;;3.05;;
20729;SDS011;10526;50.850;12.928;2023-08-07T17:46:32;5.57;;;2.50;;
20729;SDS011;10526;50.850;12.928;2023-08-07T17:50:54;8.45;;;2.97;;
20729;SDS011;10526;50.850;12.928;2023-08-07T17:55:16;12.07;;;4.32;;
20729;SDS011;10526;50.850;12.928;2023-08-07T17:59:38;13.48;;;3.83;;
20729;SDS011;10526;50.850;12.928;2023-08-07T18:04:00;11.20;;;3.55;;
20729;SDS011;10526;50.850;12.928;2023-08-07T18:08:22;8.95;;;3.13;;
20729;SDS011;10526;50.850;12.928;2023-08-07T18:12:45;14.88;;;3.60;;
20729;SDS011;10526;50.850;12.928;2023-08-07T18:17:08;15.43;;;4.13;;
20729;SDS011;10526;50.850;12.928;2023-08-07T18:21:30;11.32;;;3.05;;
20729;SDS011;10526;50.850;12.928;2023-08-07T18:25:52;11.15;;;3.00;;
20729;SDS011;10526;50.850;12.928;2023-08-07T18:30:14;8.85;;;3.38;;
20729;SDS011;10526;50.850;12.928;2023-08-07T18:34:37;8.95;;;3.10;;
20729;SDS011;10526;50.850;12.928;2023-08-07T18:38:59;13.88;;;3.38;;
20729;SDS011;10526;50.850;12.928;2023-08-07T18:43:21;8.90;;;3.10;;
20729;SDS011;10526;50.850;12.928;2023-08-07T18:47:43;9.05;;;3.30;;
20729;SDS011;10526;50.850;12.928;2023-08-07T18:52:05;10.27;;;3.20;;
20729;SDS011;10526;50.850;12.928;2023-08-07T18:56:27;15.32;;;3.83;;
20729;SDS011;10526;50.850;12.928;2023-08-07T19:00:51;10.18;;;3.67;;
20729;SDS011;10526;50.850;12.928;2023-08-07T19:05:13;10.75;;;3.47;;
20729;SDS011;10526;50.850;12.928;2023-08-07T19:09:37;15.75;;;3.85;;
20729;SDS011;10526;50.850;12.928;2023-08-07T19:13:59;13.43;;;3.53;;
20729;SDS011;10526;50.850;12.928;2023-08-07T19:18:21;15.55;;;5.10;;
20729;SDS011;10526;50.850;12.928;2023-08-07T19:22:44;11.40;;;3.65;;
20729;SDS011;10526;50.850;12.928;2023-08-07T19:27:06;13.88;;;3.97;;
20729;SDS011;10526;50.850;12.928;2023-08-07T19:31:28;12.02;;;3.50;;
20729;SDS011;10526;50.850;12.928;2023-08-07T19:35:50;14.52;;;3.50;;
20729;SDS011;10526;50.850;12.928;2023-08-07T19:40:12;19.15;;;4.45;;
20729;SDS011;10526;50.850;12.928;2023-08-07T19:44:34;11.98;;;4.32;;
20729;SDS011;10526;50.850;12.928;2023-08-07T19:48:57;8.20;;;3.70;;
20729;SDS011;10526;50.850;12.928;2023-08-07T19:53:19;12.45;;;3.53;;
20729;SDS011;10526;50.850;12.928;2023-08-07T19:57:41;8.93;;;3.22;;
20729;SDS011;10526;50.850;12.928;2023-08-07T20:02:03;11.02;;;3.65;;
20729;SDS011;10526;50.850;12.928;2023-08-07T20:06:25;12.68;;;4.03;;
20729;SDS011;10526;50.850;12.928;2023-08-07T20:10:48;10.63;;;3.40;;
20729;SDS011;10526;50.850;12.928;2023-08-07T20:15:10;11.18;;;3.42;;
20729;SDS011;10526;50.850;12.928;2023-08-07T20:19:34;11.70;;;4.22;;
20729;SDS011;10526;50.850;12.928;2023-08-07T20:23:56;9.77;;;3.67;;
20729;SDS011;10526;50.850;12.928;2023-08-07T20:28:18;12.55;;;3.83;;
20729;SDS011;10526;50.850;12.928;2023-08-07T20:32:40;10.85;;;3.60;;
20729;SDS011;10526;50.850;12.928;2023-08-07T20:37:02;11.07;;;3.38;;
20729;SDS011;10526;50.850;12.928;2023-08-07T20:41:25;10.60;;;3.80;;
20729;SDS011;10526;50.850;12.928;2023-08-07T20:45:47;8.00;;;3.50;;
20729;SDS011;10526;50.850;12.928;2023-08-07T20:50:09;9.23;;;3.30;;
20729;SDS011;10526;50.850;12.928;2023-08-07T20:54:31;11.07;;;3.10;;
20729;SDS011;10526;50.850;12.928;2023-08-07T20:58:53;10.25;;;3.45;;
20729;SDS011;10526;50.850;12.928;2023-08-07T21:03:15;10.38;;;2.78;;
20729;SDS011;10526;50.850;12.928;2023-08-07T21:07:38;8.27;;;2.70;;
20729;SDS011;10526;50.850;12.928;2023-08-07T21:12:00;8.95;;;2.60;;
20729;SDS011;10526;50.850;12.928;2023-08-07T21:16:22;8.25;;;2.92;;
20729;SDS011;10526;50.850;12.928;2023-08-07T21:20:44;6.47;;;2.63;;
20729;SDS011;10526;50.850;12.928;2023-08-07T21:25:06;8.02;;;2.70;;
20729;SDS011;10526;50.850;12.928;2023-08-07T21:29:28;10.20;;;3.50;;
20729;SDS011;10526;50.850;12.928;2023-08-07T21:33:50;10.27;;;3.05;;
20729;SDS011;10526;50.850;12.928;2023-08-07T21:38:13;8.95;;;2.65;;
20729;SDS011;10526;50.850;12.928;2023-08-07T21:42:35;7.43;;;2.78;;
20729;SDS011;10526;50.850;12.928;2023-08-07T21:46:57;6.88;;;2.38;;
20729;SDS011;10526;50.850;12.928;2023-08-07T21:51:19;9.57;;;2.70;;
20729;SDS011;10526;50.850;12.928;2023-08-07T21:55:41;11.32;;;3.05;;
20729;SDS011;10526;50.850;12.928;2023-08-07T22:00:03;9.88;;;3.35;;
20729;SDS011;10526;50.850;12.928;2023-08-07T22:04:35;8.18;;;2.80;;
20729;SDS011;10526;50.850;12.928;2023-08-07T22:08:57;6.95;;;2.42;;
20729;SDS011;10526;50.850;12.928;2023-08-07T22:13:18;10.90;;;2.88;;
20729;SDS011;10526;50.850;12.928;2023-08-07T22:17:41;8.70;;;3.10;;
20729;SDS011;10526;50.850;12.928;2023-08-07T22:22:04;7.80;;;2.58;;
20729;SDS011;10526;50.850;12.928;2023-08-07T22:26:26;7.68;;;2.67;;
20729;SDS011;10526;50.850;12.928;2023-08-07T22:30:49;6.80;;;2.83;;
20729;SDS011;10526;50.850;12.928;2023-08-07T22:35:11;9.57;;;2.83;;
20729;SDS011;10526;50.850;12.928;2023-08-07T22:39:33;9.73;;;3.10;;
20729;SDS011;10526;50.850;12.928;2023-08-07T22:43:55;10.02;;;3.33;;
20729;SDS011;10526;50.850;12.928;2023-08-07T22:48:18;10.50;;;3.05;;
20729;SDS011;10526;50.850;12.928;2023-08-07T22:52:39;8.02;;;3.08;;
20729;SDS011;10526;50.850;12.928;2023-08-07T22:57:02;5.93;;;2.90;;
20729;SDS011;10526;50.850;12.928;2023-08-07T23:01:24;9.45;;;3.22;;
20729;SDS011;10526;50.850;12.928;2023-08-07T23:05:46;4.60;;;2.70;;
20729;SDS011;10526;50.850;12.928;2023-08-07T23:10:08;9.93;;;3.35;;
20729;SDS011;10526;50.850;12.928;2023-08-07T23:14:30;10.25;;;4.00;;
20729;SDS011;10526;50.850;12.928;2023-08-07T23:18:52;9.05;;;3.17;;
20729;SDS011;10526;50.850;12.928;2023-08-07T23:23:14;14.50;;;3.15;;
20729;SDS011;10526;50.850;12.928;2023-08-07T23:27:36;10.32;;;2.90;;
20729;SDS011;10526;50.850;12.928;2023-08-07T23:31:58;9.30;;;3.40;;
20729;SDS011;10526;50.850;12.928;2023-08-07T23:36:21;8.48;;;3.30;;
20729;SDS011;10526;50.850;12.928;2023-08-07T23:40:43;6.65;;;2.92;;
20729;SDS011;10526;50.850;12.928;2023-08-07T23:45:05;8.57;;;3.45;;
20729;SDS011;10526;50.850;12.928;2023-08-07T23:49:28;9.88;;;3.13;;
20729;SDS011;10526;50.850;12.928;2023-08-07T23:53:50;9.30;;;3.60;;
20729;SDS011;10526;50.850;12.928;2023-08-07T23:58:14;10.80;;;3.45;;
